Arba, Indiana
Current Conditions -  °F | °C
As of 12:15 AM on Tuesday 23 Dec 2014 (Local Time) from KVES Reporting Station
Moderate Rain Moderate Rain  
Wind Chill: 39°   Ceiling: 3800
Heat Index: 43°   Visibility: 7mi
Dew Point: 41°   Wind: 7mph
Humidity: 93%   Direction: 140°SE
Pressure: 29.72"   Gusts: NA
Location:  40.0606°N, 84.9258°W
Report Text: KVES 230515Z AUTO 14006KT 7SM RA SCT029 OVC038 06/05 A2972 RMK AO2
Loading
Personal Weather Stations






























Interactive Weather Map New forecast layout! Learn more

10-Day Weather Forecast

Advertisements
Track Severe Weather on mobile